Time;durP1;ratioP1;P1;durP2;ratioP2;P2;SDS_P1;SDS_P2;PMS_P1;PMS_P2;Temp;Humidity;BMP_temperature;BMP_pressure;BME280_temperature;BME280_humidity;BME280_pressure;Samples;Min_cycle;Max_cycle;Signal;HPM_P1;HPM_P2
2023/01/09 00:01:39;;;;;;;1.38;0.63;;;8.50;99.90;;;;;;5073209;28;20271;-44
2023/01/09 00:04:04;;;;;;;1.45;0.80;;;8.50;99.90;;;;;;5073263;28;20626;-45
2023/01/09 00:06:30;;;;;;;1.38;1.27;;;8.40;99.90;;;;;;5073692;28;20263;-45
2023/01/09 00:08:56;;;;;;;3.58;1.92;;;8.40;99.90;;;;;;5073200;28;20606;-44
2023/01/09 00:11:22;;;;;;;5.30;2.40;;;8.30;99.90;;;;;;5073109;28;20170;-45
2023/01/09 00:13:48;;;;;;;2.28;1.88;;;8.40;99.90;;;;;;5073084;28;20181;-44
2023/01/09 00:16:14;;;;;;;2.80;1.63;;;8.40;99.90;;;;;;5071710;28;20622;-44
2023/01/09 00:18:39;;;;;;;2.85;2.00;;;8.40;99.90;;;;;;5071681;28;20170;-44
2023/01/09 00:21:07;;;;;;;4.43;2.15;;;8.30;99.90;;;;;;5072923;28;20219;-44
2023/01/09 00:23:34;;;;;;;5.50;1.95;;;8.30;99.90;;;;;;5072701;28;20178;-44
2023/01/09 00:26:10;;;;;;;2.30;1.25;;;8.30;99.90;;;;;;5073081;28;20546;-44
2023/01/09 00:28:36;;;;;;;1.45;1.05;;;8.30;99.90;;;;;;5072778;28;20621;-44
2023/01/09 00:31:03;;;;;;;2.60;1.15;;;8.30;99.90;;;;;;5072672;28;20178;-44
2023/01/09 00:33:35;;;;;;;2.72;1.17;;;8.30;99.90;;;;;;5072993;28;20215;-44
2023/01/09 00:36:00;;;;;;;3.67;1.60;;;8.30;99.90;;;;;;5072942;28;20231;-47
2023/01/09 00:38:26;;;;;;;2.85;1.50;;;8.20;99.90;;;;;;5072925;28;20704;-45
2023/01/09 00:40:54;;;;;;;4.18;2.33;;;8.20;99.90;;;;;;5072481;28;20172;-45
2023/01/09 00:43:23;;;;;;;3.65;1.50;;;8.20;99.90;;;;;;5071156;28;20536;-45
2023/01/09 00:45:49;;;;;;;1.98;1.00;;;8.20;99.90;;;;;;5072334;28;20204;-45
2023/01/09 00:48:25;;;;;;;2.05;1.08;;;8.20;99.90;;;;;;5071204;28;20177;-45
2023/01/09 00:50:56;;;;;;;1.90;0.70;;;8.20;99.90;;;;;;5072587;28;20169;-45
2023/01/09 00:53:25;;;;;;;0.47;0.25;;;8.10;99.90;;;;;;5072226;28;20170;-45
2023/01/09 00:55:51;;;;;;;0.10;0.10;;;8.10;99.90;;;;;;5072244;28;20162;-45
2023/01/09 00:58:17;;;;;;;0.47;0.30;;;8.10;99.90;;;;;;5072164;28;20185;-45
2023/01/09 01:00:43;;;;;;;0.28;0.20;;;8.10;99.90;;;;;;5072105;28;20170;-45
2023/01/09 01:03:08;;;;;;;3.17;0.45;;;8.10;99.90;;;;;;5071920;28;20263;-45
2023/01/09 01:08:19;;;;;;;0.85;0.40;;;8.10;99.90;;;;;;5072029;28;20255;-43
2023/01/09 01:10:46;;;;;;;0.65;0.63;;;8.20;99.90;;;;;;5071710;28;20162;-43
2023/01/09 01:13:12;;;;;;;0.57;0.40;;;8.10;99.90;;;;;;5071894;28;20174;-43
2023/01/09 01:15:39;;;;;;;0.95;0.50;;;8.20;99.90;;;;;;5071820;28;20162;-43
2023/01/09 01:18:05;;;;;;;0.95;0.93;;;8.10;99.90;;;;;;5071772;28;20239;-43
2023/01/09 01:20:31;;;;;;;0.95;0.57;;;8.10;99.90;;;;;;5072052;28;20218;-43
2023/01/09 01:22:56;;;;;;;0.28;0.28;;;8.20;99.90;;;;;;5072416;28;20197;-43
2023/01/09 01:25:22;;;;;;;0.43;0.30;;;8.10;99.90;;;;;;5071877;28;20162;-43
2023/01/09 01:27:48;;;;;;;0.75;0.38;;;8.10;99.90;;;;;;5071658;28;20209;-43
2023/01/09 01:30:15;;;;;;;0.22;0.20;;;8.10;99.90;;;;;;5071769;28;20171;-43
2023/01/09 01:32:41;;;;;;;1.27;1.05;;;8.10;99.90;;;;;;5071618;28;20621;-43
2023/01/09 01:35:08;;;;;;;1.08;0.50;;;8.20;99.90;;;;;;5071659;28;20253;-43
2023/01/09 01:37:34;;;;;;;0.63;0.45;;;8.20;99.90;;;;;;5071673;28;20162;-43
2023/01/09 01:40:00;;;;;;;1.55;0.65;;;8.10;99.90;;;;;;5071942;28;20166;-43
2023/01/09 01:42:25;;;;;;;1.08;0.85;;;8.20;99.90;;;;;;5071602;28;20245;-43
2023/01/09 01:45:18;;;;;;;2.13;0.55;;;8.20;99.90;;;;;;5071509;28;20185;-43
2023/01/09 01:47:55;;;;;;;2.65;0.80;;;8.10;99.90;;;;;;5071631;28;20255;-43
2023/01/09 01:50:45;;;;;;;1.58;0.80;;;8.10;99.90;;;;;;5071509;28;20645;-45
2023/01/09 01:53:25;;;;;;;1.73;0.38;;;8.10;99.90;;;;;;5071515;28;20173;-43
2023/01/09 01:56:09;;;;;;;1.80;0.70;;;8.20;99.90;;;;;;5071461;28;20170;-43
2023/01/09 01:58:44;;;;;;;0.80;0.70;;;8.10;99.90;;;;;;5071390;28;20173;-43
2023/01/09 02:01:10;;;;;;;1.88;0.70;;;8.10;99.90;;;;;;5071653;28;20165;-43
2023/01/09 02:03:38;;;;;;;1.42;0.93;;;8.10;99.90;;;;;;5069837;28;20375;-43
2023/01/09 02:06:04;;;;;;;1.23;1.13;;;8.10;99.90;;;;;;5071204;28;20197;-43
2023/01/09 02:08:30;;;;;;;1.48;0.90;;;8.10;99.90;;;;;;5071521;28;20531;-43
2023/01/09 02:10:56;;;;;;;0.70;0.50;;;8.00;99.90;;;;;;5071684;28;20648;-43
2023/01/09 02:13:23;;;;;;;2.30;1.10;;;8.00;99.90;;;;;;5069961;28;20268;-43
2023/01/09 02:16:26;;;;;;;3.28;1.08;;;8.00;99.90;;;;;;5071239;28;20169;-43
2023/01/09 02:19:11;;;;;;;1.42;0.57;;;8.10;99.90;;;;;;5071244;28;20166;-43
2023/01/09 02:22:01;;;;;;;1.58;0.82;;;8.00;99.90;;;;;;5071186;28;20178;-43
2023/01/09 02:24:59;;;;;;;3.47;0.75;;;8.00;99.90;;;;;;5075515;28;20166;-43
2023/01/09 02:28:07;;;;;;;3.55;0.90;;;8.10;99.90;;;;;;5075315;28;20255;-44
2023/01/09 02:30:45;;;;;;;1.38;0.80;;;8.00;99.90;;;;;;5046377;28;20629;-43
2023/01/09 02:34:05;;;;;;;0.70;0.70;;;8.00;99.90;;;;;;5074903;28;20219;-43
2023/01/09 02:36:51;;;;;;;0.85;0.75;;;8.00;99.90;;;;;;5013080;28;20187;-43
2023/01/09 02:39:23;;;;;;;1.27;0.85;;;8.00;99.90;;;;;;5013025;28;20175;-43
2023/01/09 02:42:04;;;;;;;1.00;0.68;;;8.00;99.90;;;;;;5060125;28;20193;-43
2023/01/09 02:44:34;;;;;;;1.65;1.20;;;8.00;99.90;;;;;;5074839;28;20209;-43
2023/01/09 02:47:25;;;;;;;0.98;0.70;;;8.00;99.90;;;;;;5074586;28;20672;-43
2023/01/09 02:49:53;;;;;;;2.90;1.00;;;8.00;99.90;;;;;;5063912;28;20221;-43
2023/01/09 02:52:34;;;;;;;3.92;1.10;;;8.00;99.90;;;;;;5074490;28;20231;-43
2023/01/09 02:55:05;;;;;;;1.27;0.80;;;8.00;99.90;;;;;;5074928;28;20184;-43
2023/01/09 02:58:11;;;;;;;1.98;1.00;;;8.00;99.90;;;;;;5074485;28;20162;-43
2023/01/09 03:01:14;;;;;;;2.90;0.90;;;8.00;99.90;;;;;;5074617;28;20161;-43
2023/01/09 03:03:49;;;;;;;3.33;1.40;;;8.00;99.90;;;;;;5074474;28;20181;-43
2023/01/09 03:06:38;;;;;;;0.70;0.70;;;7.90;99.90;;;;;;5074477;28;20204;-43
2023/01/09 03:09:19;;;;;;;3.47;0.70;;;7.90;99.90;;;;;;5073235;28;20162;-43
2023/01/09 03:11:50;;;;;;;2.38;0.93;;;7.90;99.90;;;;;;5074531;28;20197;-43
2023/01/09 03:14:20;;;;;;;0.82;0.77;;;7.80;99.90;;;;;;5074165;28;20244;-43
2023/01/09 03:16:48;;;;;;;0.60;0.60;;;7.80;99.90;;;;;;5074071;28;20166;-43
2023/01/09 03:19:17;;;;;;;1.88;0.73;;;7.70;99.90;;;;;;5074009;28;20618;-43
2023/01/09 03:21:45;;;;;;;2.42;1.02;;;7.70;99.90;;;;;;5073514;28;20634;-43
2023/01/09 03:24:11;;;;;;;1.20;0.82;;;7.70;99.90;;;;;;5073930;28;20169;-42
2023/01/09 03:26:36;;;;;;;2.55;1.30;;;7.60;99.90;;;;;;5072562;28;20213;-43
2023/01/09 03:29:02;;;;;;;4.30;1.05;;;7.60;99.90;;;;;;5074011;28;20177;-43
2023/01/09 03:31:28;;;;;;;7.40;1.20;;;7.60;99.90;;;;;;5074248;28;20169;-44
2023/01/09 03:33:54;;;;;;;2.28;1.17;;;7.60;99.90;;;;;;5074078;28;20652;-43
2023/01/09 03:36:21;;;;;;;3.58;1.00;;;7.60;99.90;;;;;;5073733;28;20689;-43
2023/01/09 03:38:48;;;;;;;1.50;1.05;;;7.40;99.90;;;;;;5073686;28;20154;-43
2023/01/09 03:41:13;;;;;;;2.67;1.00;;;7.50;99.90;;;;;;5073910;28;20174;-43
2023/01/09 03:43:39;;;;;;;3.30;1.00;;;7.50;99.90;;;;;;5073631;28;20170;-44
2023/01/09 03:46:05;;;;;;;1.33;0.70;;;7.50;99.90;;;;;;5073529;28;20201;-43
2023/01/09 03:48:30;;;;;;;4.57;1.17;;;7.40;99.90;;;;;;5073771;28;20174;-43
2023/01/09 03:50:56;;;;;;;3.45;1.08;;;7.30;99.90;;;;;;5072744;28;20190;-43
2023/01/09 03:53:24;;;;;;;4.53;1.10;;;7.30;99.90;;;;;;5073394;28;20166;-43
2023/01/09 03:55:52;;;;;;;4.50;1.33;;;7.30;99.90;;;;;;5073312;28;20271;-43
2023/01/09 03:58:19;;;;;;;2.40;1.33;;;7.30;99.90;;;;;;5073340;28;20662;-43
2023/01/09 04:00:47;;;;;;;9.63;1.70;;;7.20;99.90;;;;;;5073276;28;20174;-43
2023/01/09 04:03:14;;;;;;;3.72;1.17;;;7.20;99.90;;;;;;5073068;28;20249;-44
2023/01/09 04:05:40;;;;;;;5.47;1.35;;;7.20;99.90;;;;;;5073034;28;20652;-43
2023/01/09 04:08:06;;;;;;;2.63;1.00;;;7.20;99.90;;;;;;5073106;28;20201;-43
2023/01/09 04:10:31;;;;;;;3.25;0.90;;;7.10;99.90;;;;;;5073350;28;20172;-43
2023/01/09 04:12:57;;;;;;;6.30;1.02;;;7.10;99.90;;;;;;5073399;28;20170;-43
2023/01/09 04:15:22;;;;;;;6.88;1.83;;;7.10;99.90;;;;;;5072998;28;20173;-43
2023/01/09 04:17:48;;;;;;;5.13;1.00;;;7.10;99.90;;;;;;5072906;28;20630;-43
2023/01/09 04:20:14;;;;;;;8.95;1.48;;;7.10;99.90;;;;;;5072825;28;20193;-44
2023/01/09 04:22:39;;;;;;;2.80;1.38;;;7.10;99.90;;;;;;5072868;28;20560;-43
2023/01/09 04:25:06;;;;;;;2.97;1.20;;;7.10;99.90;;;;;;5072853;28;20698;-43
2023/01/09 04:27:31;;;;;;;2.80;1.05;;;7.10;99.90;;;;;;5072634;28;20206;-43
2023/01/09 04:29:57;;;;;;;1.50;1.02;;;7.00;99.90;;;;;;5073101;28;20304;-43
2023/01/09 04:32:22;;;;;;;0.90;0.63;;;7.00;99.90;;;;;;5072657;28;20629;-44
2023/01/09 04:34:48;;;;;;;6.72;1.50;;;7.10;99.90;;;;;;5072560;28;20248;-43
2023/01/09 04:37:14;;;;;;;4.75;1.17;;;7.10;99.90;;;;;;5072519;28;20166;-43
2023/01/09 04:39:43;;;;;;;7.15;1.73;;;7.70;99.90;;;;;;5072510;28;20173;-43
2023/01/09 04:42:10;;;;;;;1.88;1.70;;;7.10;99.90;;;;;;5072640;28;20259;-43
2023/01/09 04:44:35;;;;;;;3.83;1.25;;;7.10;99.90;;;;;;5072605;28;20169;-43
2023/01/09 04:47:01;;;;;;;1.90;0.90;;;7.20;99.90;;;;;;5071780;28;20205;-43
2023/01/09 04:49:27;;;;;;;6.10;1.65;;;7.20;99.90;;;;;;5072555;28;20211;-43
2023/01/09 04:51:52;;;;;;;5.28;1.40;;;7.20;99.90;;;;;;5072112;28;20166;-43
2023/01/09 04:54:18;;;;;;;2.70;0.93;;;7.30;99.90;;;;;;5072204;28;20166;-43
2023/01/09 04:56:44;;;;;;;3.10;1.15;;;7.30;99.90;;;;;;5072342;28;20177;-44
2023/01/09 04:59:10;;;;;;;6.40;1.80;;;7.30;99.90;;;;;;5072033;28;20166;-43
2023/01/09 05:01:35;;;;;;;4.90;1.17;;;7.30;99.90;;;;;;5071886;28;20206;-44
2023/01/09 05:04:02;;;;;;;3.80;0.85;;;7.40;99.90;;;;;;5072054;28;20224;-44
2023/01/09 05:06:27;;;;;;;3.95;1.10;;;7.40;99.90;;;;;;5072239;28;20201;-43
2023/01/09 05:08:53;;;;;;;2.72;1.10;;;7.40;99.90;;;;;;5072235;28;20518;-43
2023/01/09 05:11:19;;;;;;;3.30;1.10;;;7.40;99.90;;;;;;5071760;28;20182;-43
2023/01/09 05:13:44;;;;;;;5.55;1.38;;;7.40;99.90;;;;;;5071527;28;20223;-43
2023/01/09 05:16:10;;;;;;;2.17;1.25;;;7.50;99.90;;;;;;5071632;28;20166;-43
2023/01/09 05:18:36;;;;;;;7.35;1.00;;;7.50;99.90;;;;;;5071701;28;20170;-43
2023/01/09 05:21:02;;;;;;;5.97;1.23;;;7.50;99.90;;;;;;5071338;28;20243;-44
2023/01/09 05:23:27;;;;;;;6.65;1.30;;;7.60;99.90;;;;;;5072097;28;20181;-43
2023/01/09 05:25:53;;;;;;;4.85;1.20;;;7.60;99.90;;;;;;5071595;28;20170;-43
2023/01/09 05:28:18;;;;;;;5.72;1.40;;;7.60;99.90;;;;;;5071243;28;20170;-43
2023/01/09 05:30:45;;;;;;;7.18;1.20;;;7.60;99.90;;;;;;5071764;28;20256;-43
2023/01/09 05:33:10;;;;;;;1.58;1.08;;;7.60;99.90;;;;;;5071757;28;20177;-43
2023/01/09 05:35:36;;;;;;;5.28;1.65;;;7.60;99.90;;;;;;5071683;28;20525;-43
2023/01/09 05:38:01;;;;;;;6.80;1.65;;;7.60;99.90;;;;;;5071601;28;20213;-43
2023/01/09 05:40:27;;;;;;;5.10;1.50;;;7.60;99.90;;;;;;5071848;28;20607;-42
2023/01/09 05:42:52;;;;;;;4.95;1.60;;;7.60;99.90;;;;;;5071459;28;20161;-43
2023/01/09 05:45:18;;;;;;;6.78;2.55;;;7.70;99.90;;;;;;5071164;28;20173;-43
2023/01/09 05:47:44;;;;;;;3.88;1.80;;;7.70;99.90;;;;;;5071194;28;20213;-43
2023/01/09 05:50:11;;;;;;;3.42;1.23;;;7.70;99.90;;;;;;5071387;28;20166;-46
2023/01/09 05:52:37;;;;;;;6.40;2.17;;;7.70;99.90;;;;;;5071263;28;20169;-43
2023/01/09 05:55:03;;;;;;;2.30;1.83;;;7.70;99.90;;;;;;5071523;28;20249;-44
2023/01/09 05:57:29;;;;;;;4.70;1.58;;;7.70;99.90;;;;;;5072566;28;20169;-43
2023/01/09 05:59:54;;;;;;;8.07;2.10;;;7.80;99.90;;;;;;5074419;28;20165;-43
2023/01/09 06:02:20;;;;;;;10.85;2.67;;;7.70;99.90;;;;;;5075224;28;20251;-46
2023/01/09 06:04:45;;;;;;;7.78;2.22;;;7.80;99.90;;;;;;5075203;28;20641;-43
2023/01/09 06:07:11;;;;;;;7.15;2.67;;;7.80;99.90;;;;;;5075218;28;20205;-43
2023/01/09 06:09:37;;;;;;;4.75;1.60;;;7.70;99.90;;;;;;5075574;28;20169;-43
2023/01/09 06:12:02;;;;;;;8.18;1.95;;;7.70;99.90;;;;;;5075061;28;20638;-43
2023/01/09 06:14:28;;;;;;;7.32;1.48;;;7.80;99.90;;;;;;5075763;28;20166;-44
2023/01/09 06:16:54;;;;;;;7.45;2.20;;;7.80;99.90;;;;;;5075599;28;20197;-43
2023/01/09 06:19:19;;;;;;;7.38;2.40;;;7.80;99.90;;;;;;5075165;28;20162;-44
2023/01/09 06:21:45;;;;;;;6.95;2.35;;;7.80;99.90;;;;;;5075308;28;20177;-44
2023/01/09 06:24:11;;;;;;;4.13;1.70;;;7.80;99.90;;;;;;5075326;28;20219;-44
2023/01/09 06:26:36;;;;;;;5.15;1.88;;;7.80;99.90;;;;;;5075116;28;20214;-44
2023/01/09 06:29:02;;;;;;;4.85;1.92;;;7.80;99.90;;;;;;5074796;28;20172;-44
2023/01/09 06:31:28;;;;;;;4.28;2.13;;;7.90;99.90;;;;;;5075227;28;20173;-44
2023/01/09 06:33:53;;;;;;;4.68;1.75;;;7.90;99.90;;;;;;5074799;28;20166;-44
2023/01/09 06:36:19;;;;;;;3.28;1.42;;;7.90;99.90;;;;;;5074855;28;20170;-44
2023/01/09 06:38:45;;;;;;;6.57;1.75;;;7.90;99.90;;;;;;5074830;28;20166;-44
2023/01/09 06:41:11;;;;;;;3.67;1.73;;;7.90;99.90;;;;;;5074976;28;20170;-44
2023/01/09 06:43:36;;;;;;;6.80;1.50;;;7.90;99.90;;;;;;5074831;28;20614;-44
2023/01/09 06:46:04;;;;;;;3.60;1.40;;;8.00;99.90;;;;;;5074828;28;20243;-44
2023/01/09 06:48:30;;;;;;;6.57;1.63;;;8.00;99.90;;;;;;5074899;28;20299;-44
2023/01/09 06:50:56;;;;;;;7.60;2.00;;;8.00;99.90;;;;;;5075129;28;20189;-45
2023/01/09 06:53:21;;;;;;;5.15;1.30;;;8.00;99.90;;;;;;5074720;28;20580;-44
2023/01/09 06:55:47;;;;;;;4.05;1.67;;;8.00;99.90;;;;;;5074570;28;20499;-44
2023/01/09 06:58:12;;;;;;;2.00;1.67;;;8.10;99.90;;;;;;5074594;28;20247;-44
2023/01/09 07:00:38;;;;;;;3.72;1.88;;;8.00;99.90;;;;;;5074542;28;20177;-44
2023/01/09 07:03:04;;;;;;;7.60;2.03;;;8.00;99.90;;;;;;5074296;28;20263;-44
2023/01/09 07:05:32;;;;;;;2.83;1.40;;;8.00;99.90;;;;;;5074453;28;20154;-44
2023/01/09 07:07:58;;;;;;;5.00;1.50;;;8.00;99.90;;;;;;5074363;28;20662;-44
2023/01/09 07:10:23;;;;;;;4.38;1.83;;;8.10;99.90;;;;;;5073464;28;20253;-44
2023/01/09 07:12:49;;;;;;;9.48;1.55;;;8.10;99.90;;;;;;5074353;28;20174;-44
2023/01/09 07:15:15;;;;;;;5.65;1.40;;;8.10;99.90;;;;;;5074582;28;20177;-44
2023/01/09 07:17:40;;;;;;;4.15;1.50;;;8.10;99.90;;;;;;5074553;28;20731;-44
2023/01/09 07:20:07;;;;;;;4.90;1.48;;;8.10;99.90;;;;;;5074081;28;20594;-44
2023/01/09 07:22:32;;;;;;;8.63;1.40;;;8.20;99.90;;;;;;5074110;28;20685;-44
2023/01/09 07:24:58;;;;;;;3.42;1.48;;;8.10;99.90;;;;;;5074638;28;20205;-44
2023/01/09 07:27:24;;;;;;;6.13;1.80;;;8.10;99.90;;;;;;5074368;28;20293;-44
2023/01/09 07:29:50;;;;;;;6.47;1.75;;;8.20;99.90;;;;;;5074072;28;20206;-44
2023/01/09 07:32:16;;;;;;;2.60;1.25;;;8.20;99.90;;;;;;5074229;28;20174;-44
2023/01/09 07:34:41;;;;;;;3.65;1.13;;;8.20;99.90;;;;;;5074194;28;20166;-44
2023/01/09 07:37:07;;;;;;;6.30;2.38;;;8.20;99.90;;;;;;5073860;28;20216;-44
2023/01/09 07:39:32;;;;;;;5.63;1.88;;;8.30;99.90;;;;;;5074068;28;20253;-44
2023/01/09 07:41:58;;;;;;;7.25;2.20;;;8.30;99.90;;;;;;5074474;28;20200;-44
2023/01/09 07:44:23;;;;;;;4.45;1.30;;;8.30;99.90;;;;;;5074122;28;20652;-44
2023/01/09 07:46:49;;;;;;;4.28;1.52;;;8.30;99.90;;;;;;5073869;28;20749;-44
2023/01/09 07:49:15;;;;;;;5.43;1.63;;;8.30;99.90;;;;;;5073682;28;20193;-44
2023/01/09 07:51:42;;;;;;;5.05;1.75;;;8.30;99.90;;;;;;5072358;28;20629;-43
2023/01/09 07:54:08;;;;;;;2.63;1.60;;;8.30;99.90;;;;;;5073595;28;20223;-44
2023/01/09 07:56:34;;;;;;;4.63;2.75;;;8.30;99.90;;;;;;5072300;28;20167;-44
2023/01/09 07:59:00;;;;;;;5.35;1.50;;;8.30;99.90;;;;;;5073594;28;20517;-43
2023/01/09 08:01:25;;;;;;;4.05;1.13;;;8.30;99.90;;;;;;5073623;28;20172;-44
2023/01/09 08:03:51;;;;;;;3.05;1.38;;;8.30;99.90;;;;;;5073648;28;20278;-44
2023/01/09 08:06:16;;;;;;;8.20;2.03;;;8.30;99.90;;;;;;5073246;28;20323;-44
2023/01/09 08:08:42;;;;;;;5.75;1.52;;;8.40;99.90;;;;;;5073337;28;20202;-44
2023/01/09 08:11:08;;;;;;;3.95;1.33;;;8.40;99.90;;;;;;5073292;28;20239;-44
2023/01/09 08:13:33;;;;;;;6.32;1.30;;;8.40;99.90;;;;;;5073281;28;20296;-44
2023/01/09 08:15:59;;;;;;;3.25;1.45;;;8.40;99.90;;;;;;5073193;28;20170;-44
2023/01/09 08:18:25;;;;;;;7.00;1.83;;;8.40;99.90;;;;;;5072216;28;20174;-43
2023/01/09 08:20:50;;;;;;;3.58;1.23;;;8.40;99.90;;;;;;5072277;28;20169;-44
2023/01/09 08:23:16;;;;;;;3.58;1.70;;;8.40;99.90;;;;;;5073060;28;20657;-44
2023/01/09 08:25:42;;;;;;;3.65;1.33;;;8.40;99.90;;;;;;5073047;28;20630;-44
2023/01/09 08:28:11;;;;;;;6.47;1.58;;;8.40;99.90;;;;;;5072889;28;20212;-44
2023/01/09 08:30:37;;;;;;;9.63;1.40;;;8.50;99.90;;;;;;5072955;28;20193;-44
2023/01/09 08:33:03;;;;;;;4.63;1.45;;;8.40;99.90;;;;;;5072836;28;20165;-45
2023/01/09 08:35:28;;;;;;;4.78;1.73;;;8.50;99.90;;;;;;5073036;28;20231;-44
2023/01/09 08:37:54;;;;;;;7.53;1.60;;;8.50;99.90;;;;;;5073121;28;20524;-44
2023/01/09 08:40:19;;;;;;;7.47;2.15;;;8.50;99.90;;;;;;5072628;28;20243;-44
2023/01/09 08:48:15;;;;;;;7.82;2.33;;;8.70;99.90;;;;;;5072577;28;20691;-44
2023/01/09 08:50:42;;;;;;;10.35;2.75;;;8.70;99.90;;;;;;5072419;28;20644;-45
2023/01/09 08:53:08;;;;;;;7.72;3.17;;;8.80;99.90;;;;;;5072384;28;20261;-44
2023/01/09 08:55:34;;;;;;;9.73;3.38;;;8.80;99.90;;;;;;5072411;28;20200;-44
2023/01/09 08:58:00;;;;;;;4.57;2.20;;;8.80;99.90;;;;;;5072254;28;20193;-44
2023/01/09 09:00:25;;;;;;;3.00;1.00;;;8.80;99.90;;;;;;5072779;28;20170;-44
2023/01/09 09:02:56;;;;;;;7.60;1.70;;;8.80;99.90;;;;;;5072221;28;20229;-43
2023/01/09 09:05:23;;;;;;;5.78;1.27;;;8.80;99.90;;;;;;5072201;28;20173;-44
2023/01/09 09:07:50;;;;;;;4.35;1.05;;;8.70;99.90;;;;;;5072102;28;20209;-44
2023/01/09 09:10:17;;;;;;;6.60;2.22;;;8.80;99.90;;;;;;5072383;28;20276;-44
2023/01/09 09:12:43;;;;;;;7.35;1.90;;;8.80;99.90;;;;;;5072059;28;20261;-44
2023/01/09 09:15:14;;;;;;;4.68;1.20;;;8.70;99.90;;;;;;5070803;28;20657;-44
2023/01/09 09:17:40;;;;;;;2.92;1.10;;;8.70;99.90;;;;;;5072261;28;20165;-44
2023/01/09 09:20:06;;;;;;;2.92;1.77;;;8.70;99.90;;;;;;5072034;28;20630;-44
2023/01/09 09:22:32;;;;;;;2.00;1.15;;;8.60;99.90;;;;;;5072054;28;20162;-44
2023/01/09 09:24:58;;;;;;;1.15;0.90;;;8.60;99.90;;;;;;5072127;28;20177;-43
2023/01/09 09:27:23;;;;;;;5.20;1.10;;;8.60;99.90;;;;;;5072188;28;20251;-44
2023/01/09 09:29:49;;;;;;;2.53;1.17;;;8.60;99.90;;;;;;5059287;28;20167;-43
2023/01/09 09:32:15;;;;;;;3.88;1.08;;;8.60;99.90;;;;;;5057390;28;20618;-44
2023/01/09 09:34:40;;;;;;;3.53;1.40;;;8.60;99.90;;;;;;5069878;28;20593;-44
2023/01/09 09:37:06;;;;;;;4.32;1.25;;;8.60;99.90;;;;;;5070072;28;20257;-43
2023/01/09 09:39:32;;;;;;;2.22;1.23;;;8.60;99.90;;;;;;5069977;28;20166;-42
2023/01/09 09:45:24;;;;;;;5.40;1.40;;;8.60;99.90;;;;;;5070556;28;20196;-43
2023/01/09 09:48:21;;;;;;;4.07;1.20;;;8.60;99.90;;;;;;5069806;28;20590;-43
2023/01/09 09:51:02;;;;;;;7.90;1.42;;;8.70;99.90;;;;;;5069951;28;20174;-43
2023/01/09 09:54:01;;;;;;;4.60;1.08;;;8.70;99.90;;;;;;5070215;28;20166;-43
2023/01/09 09:56:31;;;;;;;1.58;1.35;;;8.70;99.90;;;;;;5070071;28;20252;-44
2023/01/09 09:59:03;;;;;;;3.08;0.85;;;8.80;99.90;;;;;;5070408;28;20174;-43
2023/01/09 10:01:38;;;;;;;3.83;1.15;;;8.70;99.90;;;;;;5069910;28;20512;-43
2023/01/09 10:04:09;;;;;;;3.63;1.00;;;8.80;99.90;;;;;;5069702;28;20185;-43
2023/01/09 10:06:41;;;;;;;4.10;0.95;;;8.80;99.90;;;;;;5069655;28;20250;-43
2023/01/09 10:09:32;;;;;;;5.43;1.10;;;8.70;99.90;;;;;;5069707;28;20166;-44
2023/01/09 10:11:57;;;;;;;3.40;1.10;;;8.70;99.90;;;;;;5070046;28;20170;-44
2023/01/09 10:14:23;;;;;;;3.80;0.88;;;8.70;99.90;;;;;;5069925;28;20249;-43
2023/01/09 10:17:23;;;;;;;0.70;0.52;;;8.80;99.90;;;;;;5069500;28;20252;-43
2023/01/09 10:19:55;;;;;;;1.05;0.52;;;8.80;99.90;;;;;;5046338;28;20436;-44
2023/01/09 10:22:27;;;;;;;1.13;0.98;;;8.80;99.90;;;;;;5069371;28;20166;-44
2023/01/09 10:25:07;;;;;;;2.75;0.60;;;8.90;99.90;;;;;;5069958;28;20245;-43
2023/01/09 10:28:01;;;;;;;4.40;1.10;;;9.00;99.90;;;;;;5069380;28;20205;-44
2023/01/09 10:30:35;;;;;;;3.17;0.68;;;9.00;99.90;;;;;;5069850;28;20162;-44
2023/01/09 10:33:33;;;;;;;1.95;1.30;;;9.00;99.90;;;;;;5069472;28;20254;-44
2023/01/09 10:36:28;;;;;;;1.58;0.60;;;9.10;99.90;;;;;;5069282;28;20166;-44
2023/01/09 10:38:57;;;;;;;1.10;0.50;;;9.10;99.90;;;;;;5069658;28;20779;-43
2023/01/09 10:42:00;;;;;;;4.55;1.30;;;9.10;99.90;;;;;;5069354;28;20181;-43
2023/01/09 10:44:36;;;;;;;1.63;0.85;;;9.00;99.90;;;;;;5072027;28;20253;-44
2023/01/09 10:47:24;;;;;;;3.28;1.00;;;9.00;99.90;;;;;;5072743;28;20201;-43
2023/01/09 10:49:51;;;;;;;1.73;1.10;;;9.00;99.90;;;;;;5072880;28;20170;-43
2023/01/09 10:52:19;;;;;;;3.08;0.70;;;8.90;99.90;;;;;;5071247;28;20550;-43
2023/01/09 10:54:54;;;;;;;1.00;0.90;;;8.90;99.90;;;;;;5072794;28;20161;-44
2023/01/09 10:57:36;;;;;;;2.35;0.90;;;8.90;99.90;;;;;;5072413;28;20644;-44
2023/01/09 11:00:04;;;;;;;3.38;0.90;;;8.90;99.90;;;;;;5072847;28;20169;-43
2023/01/09 11:02:33;;;;;;;0.75;0.55;;;8.90;99.90;;;;;;5071090;28;20723;-43
2023/01/09 11:04:58;;;;;;;1.30;0.80;;;8.90;99.90;;;;;;5072741;28;20175;-43
2023/01/09 11:07:40;;;;;;;3.83;0.77;;;8.90;99.90;;;;;;5071749;28;20216;-43
2023/01/09 11:10:12;;;;;;;5.13;1.65;;;9.40;99.90;;;;;;5072445;28;20174;-43
2023/01/09 11:12:38;;;;;;;3.53;1.40;;;9.00;99.90;;;;;;5072655;28;20170;-43
2023/01/09 11:15:15;;;;;;;3.42;1.27;;;8.90;99.90;;;;;;5072649;28;20646;-43
2023/01/09 11:17:42;;;;;;;3.13;1.08;;;9.00;99.90;;;;;;5072707;28;20181;-43
2023/01/09 11:20:28;;;;;;;3.40;1.10;;;9.00;99.90;;;;;;5072513;28;20170;-43
2023/01/09 11:22:57;;;;;;;2.95;1.02;;;9.10;99.90;;;;;;5072669;28;20531;-43
2023/01/09 11:25:27;;;;;;;0.73;0.73;;;9.10;99.90;;;;;;5072802;28;20657;-43
2023/01/09 11:28:08;;;;;;;2.53;0.90;;;9.00;99.90;;;;;;5072157;28;20297;-43
2023/01/09 11:30:59;;;;;;;3.45;1.27;;;9.00;99.90;;;;;;5072509;28;20656;-43
2023/01/09 11:33:41;;;;;;;1.52;0.90;;;9.00;99.90;;;;;;5072483;28;20249;-43
2023/01/09 11:36:12;;;;;;;2.22;0.80;;;9.10;99.90;;;;;;5072124;28;20653;-43
2023/01/09 11:38:48;;;;;;;1.60;0.68;;;9.10;99.90;;;;;;5072046;28;20174;-43
2023/01/09 11:41:21;;;;;;;4.28;1.02;;;9.10;99.90;;;;;;5071981;28;20216;-43
2023/01/09 11:43:50;;;;;;;3.72;1.00;;;9.20;99.90;;;;;;5072103;28;20166;-43
2023/01/09 11:46:37;;;;;;;2.53;1.10;;;9.20;99.90;;;;;;5072179;28;20216;-43
2023/01/09 11:49:12;;;;;;;2.67;0.93;;;9.20;99.90;;;;;;5072142;28;20174;-43
2023/01/09 11:51:38;;;;;;;2.50;0.98;;;9.30;99.90;;;;;;5072088;28;20227;-43
2023/01/09 11:54:24;;;;;;;2.65;0.82;;;9.30;99.90;;;;;;5071535;28;20221;-43
2023/01/09 11:56:50;;;;;;;0.43;0.40;;;9.20;99.90;;;;;;5071245;28;20174;-43
2023/01/09 11:59:20;;;;;;;1.50;0.80;;;9.20;99.90;;;;;;5071737;28;20256;-43
2023/01/09 12:02:06;;;;;;;0.47;0.43;;;9.20;99.90;;;;;;5071816;28;20224;-43
2023/01/09 12:04:54;;;;;;;2.53;0.80;;;9.10;99.90;;;;;;5071683;28;20168;-43
2023/01/09 12:07:43;;;;;;;1.13;0.40;;;9.10;99.90;;;;;;5071843;28;20292;-42
2023/01/09 12:10:44;;;;;;;2.08;0.57;;;9.00;99.90;;;;;;5061760;28;20200;-43
2023/01/09 12:13:50;;;;;;;0.95;0.47;;;9.00;99.90;;;;;;5037867;28;20193;-43
2023/01/09 12:16:34;;;;;;;0.80;0.80;;;9.00;99.90;;;;;;5070630;28;20579;-43
2023/01/09 12:19:51;;;;;;;0.43;0.43;;;8.90;99.90;;;;;;5071208;28;20188;-43
2023/01/09 12:22:48;;;;;;;0.68;0.65;;;8.80;99.90;;;;;;5026174;28;20198;-43
2023/01/09 12:25:41;;;;;;;0.50;0.50;;;8.80;99.90;;;;;;5071180;28;20811;-43
2023/01/09 12:28:38;;;;;;;0.85;0.70;;;8.80;99.90;;;;;;5071369;28;20206;-43
2023/01/09 12:31:39;;;;;;;1.58;0.65;;;8.70;99.90;;;;;;5071402;28;20166;-43
2023/01/09 12:34:33;;;;;;;3.13;1.33;;;8.70;99.90;;;;;;5070732;28;20189;-44
2023/01/09 12:37:36;;;;;;;4.60;0.85;;;8.80;99.90;;;;;;5070983;28;20525;-43
2023/01/09 12:40:25;;;;;;;4.03;1.27;;;8.70;99.90;;;;;;5070924;28;20646;-44
2023/01/09 12:43:09;;;;;;;1.55;0.93;;;8.80;99.90;;;;;;5070786;28;20180;-45
2023/01/09 12:46:03;;;;;;;1.60;0.73;;;8.90;99.90;;;;;;5070794;28;20236;-44
2023/01/09 12:49:06;;;;;;;2.05;0.80;;;9.00;99.90;;;;;;5048393;28;20220;-44
2023/01/09 12:51:53;;;;;;;4.35;1.05;;;9.00;99.90;;;;;;5051520;28;20177;-45
2023/01/09 12:54:22;;;;;;;1.48;0.73;;;9.00;99.90;;;;;;5071052;28;20169;-45
2023/01/09 12:57:10;;;;;;;2.90;1.10;;;9.00;99.90;;;;;;5070286;28;20162;-45
2023/01/09 12:59:44;;;;;;;2.20;1.40;;;9.00;99.90;;;;;;5070415;28;20163;-45
2023/01/09 13:02:26;;;;;;;3.85;1.35;;;9.00;99.90;;;;;;5070161;28;20213;-45
2023/01/09 13:05:23;;;;;;;2.15;1.23;;;9.00;99.90;;;;;;5053993;28;20189;-48
2023/01/09 13:08:01;;;;;;;6.47;1.48;;;8.50;99.90;;;;;;5049420;28;20198;-52
2023/01/09 13:10:32;;;;;;;2.70;0.90;;;9.00;99.90;;;;;;5049427;28;20698;-51
2023/01/09 13:13:14;;;;;;;2.15;1.17;;;8.90;99.90;;;;;;5050006;28;20203;-49
2023/01/09 13:15:44;;;;;;;1.98;1.05;;;8.90;99.90;;;;;;5050056;28;20174;-51
2023/01/09 13:18:13;;;;;;;3.67;1.25;;;8.90;99.90;;;;;;5049834;28;20205;-46
2023/01/09 13:20:45;;;;;;;1.50;1.00;;;9.00;99.90;;;;;;5050117;28;20167;-52
2023/01/09 13:23:39;;;;;;;3.72;1.13;;;9.00;99.90;;;;;;5050010;28;20166;-52
2023/01/09 13:26:15;;;;;;;2.55;1.27;;;9.00;99.90;;;;;;5049819;28;20166;-49
2023/01/09 13:28:51;;;;;;;3.50;1.45;;;9.10;99.90;;;;;;5049777;28;20174;-48
2023/01/09 13:31:38;;;;;;;5.85;1.55;;;9.20;99.90;;;;;;5049990;28;20243;-46
2023/01/09 13:34:12;;;;;;;2.13;1.20;;;9.20;99.90;;;;;;5050139;28;20249;-44